KLM1163 EHAM-ENBR
Flight info
| Callsign | KLM1163 |
|---|---|
| Flight time | N/A |
| Altitude | 38000 |
| Route | BERGI M90 LONAM/N0446F370 DCT LARGA DCT PENUN/N0447F380 DCT ALUVA |
| Aircraft | B737/M-SDE2E3FGHIRWXY/LB1 |
Departure
| Time | 2026-04-27 13:19 |
|---|---|
| Airport | Amsterdam Airport Schiphol (EHAM) |
Arrival
| Time | N/A |
|---|---|
| Airport | Bergen Airport, Flesland (ENBR) |
| Time | Latitude | Longitude | Altitude | Speed | Heading |
|---|---|---|---|---|---|
| 2026-04-27 12:39 | 52.30804 | 4.76632 | -2 ft | 0 kts | 345° |
| 2026-04-27 12:40 | 52.30807 | 4.76631 | -2 ft | 0 kts | 345° |
| 2026-04-27 12:59 | 52.30792 | 4.76631 | -2 ft | 4 kts | 30° |
| 2026-04-27 12:59 | 52.30776 | 4.76617 | -2 ft | 4 kts | 351° |
| 2026-04-27 12:59 | 52.30759 | 4.76637 | -2 ft | 3 kts | 319° |
| 2026-04-27 12:59 | 52.30741 | 4.76662 | -2 ft | 4 kts | 322° |
| 2026-04-27 13:00 | 52.30723 | 4.76682 | -2 ft | 4 kts | 328° |
| 2026-04-27 13:00 | 52.30701 | 4.76705 | -2 ft | 4 kts | 328° |
| 2026-04-27 13:00 | 52.30678 | 4.76729 | -2 ft | 4 kts | 328° |
| 2026-04-27 13:00 | 52.30668 | 4.76738 | -2 ft | 1 kts | 328° |
| 2026-04-27 13:02 | 52.30669 | 4.76738 | -2 ft | 2 kts | 334° |
| 2026-04-27 13:02 | 52.30707 | 4.76804 | -2 ft | 12 kts | 108° |
| 2026-04-27 13:03 | 52.30660 | 4.76909 | -2 ft | 12 kts | 104° |
| 2026-04-27 13:03 | 52.30619 | 4.77018 | -2 ft | 13 kts | 149° |
| 2026-04-27 13:03 | 52.30529 | 4.77098 | -2 ft | 14 kts | 173° |
| 2026-04-27 13:03 | 52.30472 | 4.76990 | -2 ft | 13 kts | 239° |
| 2026-04-27 13:04 | 52.30425 | 4.76863 | -2 ft | 15 kts | 239° |
| 2026-04-27 13:04 | 52.30351 | 4.76672 | -2 ft | 22 kts | 237° |
| 2026-04-27 13:04 | 52.30273 | 4.76466 | -2 ft | 21 kts | 238° |
| 2026-04-27 13:04 | 52.30196 | 4.76268 | -2 ft | 20 kts | 238° |
| 2026-04-27 13:05 | 52.30122 | 4.76075 | -2 ft | 20 kts | 238° |
| 2026-04-27 13:05 | 52.30050 | 4.75889 | -2 ft | 19 kts | 238° |
| 2026-04-27 13:05 | 52.29982 | 4.75707 | -2 ft | 18 kts | 238° |
| 2026-04-27 13:05 | 52.29915 | 4.75532 | -2 ft | 18 kts | 238° |
| 2026-04-27 13:06 | 52.29872 | 4.75420 | -2 ft | 17 kts | 237° |
| 2026-04-27 13:06 | 52.29848 | 4.75185 | -2 ft | 17 kts | 303° |
| 2026-04-27 13:06 | 52.29921 | 4.75044 | -2 ft | 16 kts | 313° |
| 2026-04-27 13:06 | 52.30003 | 4.74896 | -2 ft | 21 kts | 313° |
| 2026-04-27 13:07 | 52.30068 | 4.74777 | -1 ft | 21 kts | 312° |
| 2026-04-27 13:07 | 52.30178 | 4.74571 | 9 ft | 29 kts | 311° |
| 2026-04-27 13:07 | 52.30316 | 4.74314 | 1 ft | 30 kts | 311° |
| 2026-04-27 13:07 | 52.30473 | 4.74199 | -2 ft | 25 kts | 2° |
| 2026-04-27 13:08 | 52.30640 | 4.74212 | -2 ft | 23 kts | 2° |
| 2026-04-27 13:08 | 52.30799 | 4.74227 | -2 ft | 22 kts | 3° |
| 2026-04-27 13:08 | 52.30952 | 4.74242 | -2 ft | 22 kts | 3° |
| 2026-04-27 13:08 | 52.31101 | 4.74256 | -2 ft | 21 kts | 3° |
| 2026-04-27 13:09 | 52.31247 | 4.74271 | -2 ft | 21 kts | 4° |
| 2026-04-27 13:09 | 52.31387 | 4.74282 | -2 ft | 20 kts | 2° |
| 2026-04-27 13:09 | 52.31524 | 4.74295 | -2 ft | 19 kts | 3° |
| 2026-04-27 13:09 | 52.31658 | 4.74307 | -2 ft | 21 kts | 3° |
| 2026-04-27 13:10 | 52.31826 | 4.74322 | -2 ft | 24 kts | 3° |
| 2026-04-27 13:10 | 52.31956 | 4.74334 | -2 ft | 11 kts | 2° |
| 2026-04-27 13:10 | 52.32022 | 4.74286 | -2 ft | 11 kts | 296° |
| 2026-04-27 13:10 | 52.32033 | 4.74147 | -2 ft | 14 kts | 272° |
| 2026-04-27 13:11 | 52.32040 | 4.73958 | -3 ft | 20 kts | 273° |
| 2026-04-27 13:11 | 52.32048 | 4.73729 | -2 ft | 20 kts | 273° |
| 2026-04-27 13:11 | 52.32055 | 4.73506 | -2 ft | 19 kts | 275° |
| 2026-04-27 13:11 | 52.32113 | 4.73321 | -2 ft | 19 kts | 318° |
| 2026-04-27 13:12 | 52.32209 | 4.73183 | -2 ft | 18 kts | 319° |
| 2026-04-27 13:12 | 52.32302 | 4.73051 | -2 ft | 17 kts | 319° |
| 2026-04-27 13:12 | 52.32398 | 4.72919 | -2 ft | 19 kts | 320° |
| 2026-04-27 13:12 | 52.32507 | 4.72768 | -2 ft | 21 kts | 319° |
| 2026-04-27 13:13 | 52.32624 | 4.72601 | -2 ft | 24 kts | 317° |
| 2026-04-27 13:13 | 52.32737 | 4.72411 | -2 ft | 23 kts | 311° |
| 2026-04-27 13:13 | 52.32841 | 4.72219 | -2 ft | 22 kts | 311° |
| 2026-04-27 13:13 | 52.32941 | 4.72032 | -2 ft | 22 kts | 311° |
| 2026-04-27 13:14 | 52.33039 | 4.71850 | -2 ft | 21 kts | 311° |
| 2026-04-27 13:14 | 52.33132 | 4.71672 | -2 ft | 20 kts | 301° |
| 2026-04-27 13:14 | 52.33110 | 4.71470 | -2 ft | 20 kts | 224° |
| 2026-04-27 13:14 | 52.33013 | 4.71329 | -2 ft | 12 kts | 221° |
| 2026-04-27 13:15 | 52.32965 | 4.71261 | -2 ft | 9 kts | 221° |
| 2026-04-27 13:15 | 52.32919 | 4.71194 | -2 ft | 9 kts | 221° |
| 2026-04-27 13:15 | 52.32893 | 4.71157 | -2 ft | 0 kts | 221° |
| 2026-04-27 13:16 | 52.32879 | 4.71132 | -2 ft | 8 kts | 233° |
| 2026-04-27 13:16 | 52.32863 | 4.71060 | -2 ft | 0 kts | 264° |
| 2026-04-27 13:17 | 52.32862 | 4.71045 | -3 ft | 7 kts | 266° |
| 2026-04-27 13:17 | 52.32865 | 4.70923 | -3 ft | 8 kts | 274° |
| 2026-04-27 13:17 | 52.32884 | 4.70896 | -3 ft | 3 kts | 351° |
| 2026-04-27 13:17 | 52.32899 | 4.70896 | -3 ft | 0 kts | 2° |
| 2026-04-27 13:18 | 52.33009 | 4.70905 | -4 ft | 50 kts | 3° |
| 2026-04-27 13:18 | 52.33623 | 4.70960 | -1 ft | 123 kts | 4° |
| 2026-04-27 13:19 | 52.34629 | 4.71062 | 278 ft | 155 kts | 6° |
| 2026-04-27 13:19 | 52.35677 | 4.71201 | 1194 ft | 148 kts | 5° |
| 2026-04-27 13:19 | 52.36664 | 4.71284 | 2183 ft | 145 kts | 4° |
| 2026-04-27 13:19 | 52.37738 | 4.71378 | 2934 ft | 171 kts | 3° |
| 2026-04-27 13:20 | 52.39078 | 4.71483 | 3406 ft | 212 kts | 4° |
| 2026-04-27 13:20 | 52.40672 | 4.71610 | 3880 ft | 247 kts | 3° |
| 2026-04-27 13:20 | 52.42429 | 4.71502 | 4950 ft | 257 kts | 347° |
| 2026-04-27 13:20 | 52.44049 | 4.70274 | 6213 ft | 258 kts | 323° |
| 2026-04-27 13:21 | 52.45383 | 4.68264 | 7383 ft | 264 kts | 316° |
| 2026-04-27 13:21 | 52.46699 | 4.66091 | 8437 ft | 272 kts | 314° |
| 2026-04-27 13:21 | 52.48013 | 4.63893 | 9619 ft | 273 kts | 314° |
| 2026-04-27 13:21 | 52.49374 | 4.61638 | 10619 ft | 283 kts | 314° |
| 2026-04-27 13:22 | 52.50831 | 4.59237 | 11052 ft | 312 kts | 314° |
| 2026-04-27 13:22 | 52.52529 | 4.56806 | 11610 ft | 332 kts | 325° |
| 2026-04-27 13:22 | 52.54536 | 4.54854 | 12643 ft | 336 kts | 329° |
| 2026-04-27 13:22 | 52.56592 | 4.52995 | 13757 ft | 339 kts | 330° |
| 2026-04-27 13:23 | 52.58677 | 4.51111 | 14719 ft | 343 kts | 329° |
| 2026-04-27 13:23 | 52.60750 | 4.49213 | 15600 ft | 348 kts | 329° |
| 2026-04-27 13:23 | 52.62875 | 4.47242 | 16514 ft | 352 kts | 328° |
| 2026-04-27 13:23 | 52.65023 | 4.45232 | 17438 ft | 357 kts | 328° |
| 2026-04-27 13:24 | 52.67199 | 4.43183 | 18356 ft | 362 kts | 327° |
| 2026-04-27 13:24 | 52.69405 | 4.41101 | 19171 ft | 367 kts | 327° |
| 2026-04-27 13:24 | 52.71636 | 4.38992 | 19952 ft | 371 kts | 327° |
| 2026-04-27 13:24 | 52.73883 | 4.36867 | 20770 ft | 374 kts | 328° |
| 2026-04-27 13:25 | 52.76266 | 4.35197 | 21541 ft | 383 kts | 342° |
| 2026-04-27 13:25 | 52.78878 | 4.34193 | 22348 ft | 387 kts | 344° |
| 2026-04-27 13:25 | 52.81531 | 4.33261 | 23097 ft | 392 kts | 344° |
| 2026-04-27 13:25 | 52.84221 | 4.32321 | 23831 ft | 397 kts | 344° |
| 2026-04-27 13:26 | 52.86936 | 4.31350 | 24450 ft | 400 kts | 343° |
| 2026-04-27 13:26 | 52.89672 | 4.30348 | 25074 ft | 404 kts | 343° |
| 2026-04-27 13:26 | 52.92433 | 4.29320 | 25680 ft | 407 kts | 343° |
| 2026-04-27 13:26 | 52.95177 | 4.28287 | 26272 ft | 411 kts | 342° |
| 2026-04-27 13:27 | 52.97983 | 4.27227 | 26815 ft | 416 kts | 342° |
| 2026-04-27 13:27 | 53.00826 | 4.26151 | 27370 ft | 420 kts | 342° |
| 2026-04-27 13:27 | 53.03686 | 4.25069 | 27936 ft | 423 kts | 342° |
| 2026-04-27 13:27 | 53.06559 | 4.23980 | 28475 ft | 426 kts | 342° |
| 2026-04-27 13:28 | 53.09474 | 4.22876 | 29009 ft | 430 kts | 342° |
| 2026-04-27 13:28 | 53.12416 | 4.21766 | 29482 ft | 434 kts | 342° |
| 2026-04-27 13:28 | 53.15338 | 4.20663 | 29939 ft | 438 kts | 342° |
| 2026-04-27 13:28 | 53.18315 | 4.19540 | 30428 ft | 441 kts | 342° |
| 2026-04-27 13:29 | 53.21334 | 4.18399 | 30791 ft | 445 kts | 342° |
| 2026-04-27 13:29 | 53.24360 | 4.17254 | 31180 ft | 447 kts | 342° |
| 2026-04-27 13:29 | 53.27402 | 4.16101 | 31608 ft | 448 kts | 342° |
| 2026-04-27 13:29 | 53.30413 | 4.14958 | 31955 ft | 450 kts | 342° |
| 2026-04-27 13:30 | 53.33476 | 4.13793 | 32318 ft | 452 kts | 342° |
| 2026-04-27 13:30 | 53.36540 | 4.12626 | 32772 ft | 451 kts | 342° |
| 2026-04-27 13:30 | 53.39601 | 4.11460 | 33278 ft | 449 kts | 342° |
| 2026-04-27 13:30 | 53.42633 | 4.10302 | 33798 ft | 446 kts | 342° |
| 2026-04-27 13:31 | 53.45664 | 4.09142 | 34253 ft | 446 kts | 342° |
| 2026-04-27 13:31 | 53.48681 | 4.07985 | 34584 ft | 446 kts | 342° |
| 2026-04-27 13:31 | 53.51714 | 4.06820 | 34920 ft | 445 kts | 342° |
| 2026-04-27 13:31 | 53.54731 | 4.05660 | 35278 ft | 444 kts | 342° |
| 2026-04-27 13:32 | 53.57713 | 4.04511 | 35620 ft | 444 kts | 342° |
| 2026-04-27 13:32 | 53.60722 | 4.03349 | 35943 ft | 443 kts | 342° |
| 2026-04-27 13:32 | 53.63725 | 4.02187 | 36287 ft | 443 kts | 343° |
| 2026-04-27 13:32 | 53.66734 | 4.01022 | 36609 ft | 442 kts | 343° |
| 2026-04-27 13:33 | 53.69732 | 3.99859 | 36959 ft | 442 kts | 343° |
| 2026-04-27 13:33 | 53.72736 | 3.98691 | 37243 ft | 442 kts | 343° |
| 2026-04-27 13:33 | 53.75735 | 3.97525 | 37566 ft | 441 kts | 343° |
| 2026-04-27 13:33 | 53.78690 | 3.96375 | 37889 ft | 440 kts | 343° |
| 2026-04-27 13:34 | 53.81685 | 3.95238 | 38192 ft | 440 kts | 347° |
| 2026-04-27 13:34 | 53.84745 | 3.94652 | 38459 ft | 444 kts | 355° |
| 2026-04-27 13:34 | 53.87844 | 3.94861 | 38752 ft | 447 kts | 2° |
| 2026-04-27 13:34 | 53.90942 | 3.95469 | 39068 ft | 446 kts | 4° |
| 2026-04-27 13:35 | 53.94031 | 3.96143 | 39297 ft | 446 kts | 4° |
| 2026-04-27 13:35 | 53.97070 | 3.96817 | 39512 ft | 446 kts | 4° |
| 2026-04-27 13:35 | 54.00148 | 3.97489 | 39715 ft | 446 kts | 4° |
| 2026-04-27 13:35 | 54.03239 | 3.98145 | 39910 ft | 446 kts | 4° |
| 2026-04-27 13:36 | 54.06319 | 3.98784 | 40100 ft | 446 kts | 4° |
| 2026-04-27 13:36 | 54.09401 | 3.99414 | 40312 ft | 445 kts | 4° |
| 2026-04-27 13:36 | 54.12446 | 4.00032 | 40493 ft | 445 kts | 4° |
| 2026-04-27 13:36 | 54.15534 | 4.00657 | 40671 ft | 445 kts | 4° |
| 2026-04-27 13:37 | 54.18608 | 4.01280 | 40877 ft | 445 kts | 4° |
| 2026-04-27 13:37 | 54.21690 | 4.01906 | 41046 ft | 446 kts | 4° |
| 2026-04-27 13:37 | 54.24769 | 4.02533 | 41215 ft | 446 kts | 4° |
| 2026-04-27 13:37 | 54.27858 | 4.03163 | 41333 ft | 447 kts | 4° |
| 2026-04-27 13:38 | 54.34082 | 4.04434 | 41344 ft | 454 kts | 4° |
| 2026-04-27 13:38 | 54.40358 | 4.05722 | 41351 ft | 458 kts | 4° |
| 2026-04-27 13:39 | 54.46732 | 4.07035 | 41347 ft | 461 kts | 4° |
| 2026-04-27 13:39 | 54.53134 | 4.08359 | 41346 ft | 463 kts | 4° |
| 2026-04-27 13:40 | 54.59492 | 4.09677 | 41340 ft | 463 kts | 4° |
| 2026-04-27 13:40 | 54.65885 | 4.11006 | 41341 ft | 462 kts | 4° |
| 2026-04-27 13:41 | 54.72268 | 4.12338 | 41352 ft | 461 kts | 4° |
| 2026-04-27 13:41 | 54.78642 | 4.13671 | 41341 ft | 460 kts | 4° |
| 2026-04-27 13:42 | 54.84955 | 4.14996 | 41343 ft | 459 kts | 4° |
| 2026-04-27 13:42 | 54.91290 | 4.16532 | 41342 ft | 459 kts | 7° |
| 2026-04-27 13:43 | 54.97591 | 4.18409 | 41351 ft | 459 kts | 7° |
| 2026-04-27 13:43 | 55.03856 | 4.20296 | 41349 ft | 459 kts | 7° |
| 2026-04-27 13:44 | 55.10156 | 4.22152 | 41343 ft | 459 kts | 7° |
| 2026-04-27 13:44 | 55.16468 | 4.23991 | 41342 ft | 459 kts | 7° |
| 2026-04-27 13:45 | 55.22772 | 4.25826 | 41353 ft | 459 kts | 7° |
| 2026-04-27 13:45 | 55.29034 | 4.27656 | 41349 ft | 459 kts | 7° |
| 2026-04-27 13:46 | 55.35354 | 4.29511 | 41365 ft | 459 kts | 7° |
| 2026-04-27 13:46 | 55.41665 | 4.31369 | 41343 ft | 460 kts | 7° |
| 2026-04-27 13:47 | 55.47943 | 4.33224 | 41361 ft | 459 kts | 7° |
| 2026-04-27 13:47 | 55.54271 | 4.35100 | 41354 ft | 459 kts | 7° |
| 2026-04-27 13:48 | 55.60579 | 4.36975 | 41359 ft | 459 kts | 7° |
| 2026-04-27 13:48 | 55.66843 | 4.38844 | 41358 ft | 458 kts | 7° |
| 2026-04-27 13:49 | 55.73135 | 4.40727 | 41367 ft | 458 kts | 7° |
| 2026-04-27 13:49 | 55.79437 | 4.42619 | 41356 ft | 458 kts | 7° |
| 2026-04-27 13:50 | 55.85723 | 4.44512 | 41362 ft | 458 kts | 7° |
| 2026-04-27 13:50 | 55.92016 | 4.46414 | 41363 ft | 458 kts | 8° |
| 2026-04-27 13:51 | 55.98305 | 4.48321 | 41363 ft | 458 kts | 8° |
| 2026-04-27 13:51 | 56.04549 | 4.50221 | 41365 ft | 458 kts | 8° |
| 2026-04-27 13:52 | 56.10839 | 4.52141 | 41363 ft | 458 kts | 8° |
| 2026-04-27 13:52 | 56.17127 | 4.54067 | 41363 ft | 458 kts | 8° |
| 2026-04-27 13:53 | 56.25516 | 4.56645 | 41374 ft | 458 kts | 8° |
| 2026-04-27 13:54 | 56.31810 | 4.58588 | 41373 ft | 458 kts | 8° |
| 2026-04-27 13:54 | 56.38112 | 4.60540 | 41376 ft | 458 kts | 8° |
| 2026-04-27 13:55 | 56.44360 | 4.62481 | 41370 ft | 459 kts | 8° |
| 2026-04-27 13:55 | 56.50654 | 4.64443 | 41381 ft | 458 kts | 8° |
| 2026-04-27 13:56 | 56.56952 | 4.66413 | 41369 ft | 458 kts | 8° |
| 2026-04-27 13:56 | 56.63240 | 4.68387 | 41372 ft | 458 kts | 8° |
| 2026-04-27 13:57 | 56.69487 | 4.70354 | 41371 ft | 458 kts | 8° |
| 2026-04-27 13:57 | 56.75783 | 4.72344 | 41381 ft | 458 kts | 8° |
| 2026-04-27 13:58 | 56.82063 | 4.74335 | 41376 ft | 458 kts | 8° |
| 2026-04-27 13:58 | 56.88348 | 4.76334 | 41372 ft | 458 kts | 8° |
| 2026-04-27 13:59 | 56.94589 | 4.78327 | 41371 ft | 458 kts | 8° |
| 2026-04-27 13:59 | 57.00880 | 4.80343 | 41373 ft | 457 kts | 8° |
| 2026-04-27 14:00 | 57.07146 | 4.82356 | 41376 ft | 457 kts | 8° |
| 2026-04-27 14:00 | 57.13441 | 4.83975 | 41377 ft | 455 kts | 2° |
| 2026-04-27 14:01 | 57.19748 | 4.84335 | 41373 ft | 455 kts | 360° |
| 2026-04-27 14:01 | 57.26091 | 4.84523 | 41375 ft | 455 kts | 360° |
| 2026-04-27 14:02 | 57.32404 | 4.84788 | 41380 ft | 455 kts | 0° |